Cimarron, Kansas
Current Conditions -  °F | °C
As of 10:52 AM on Saturday 25 Oct 2014 (Local Time) from KDDC Reporting Station
Clear Clear  
Wind Chill: 73°   Ceiling: Unl
Heat Index: 73°   Visibility: 8mi
Dew Point: 49°   Wind: 5mph
Humidity: 42%   Direction: 190°S
Pressure: 30.11"   Gusts: NA
Location:  37.81°N, 100.35°W
Report Text: KDDC 251552Z AUTO 19004KT 8SM CLR 23/09 A3011 RMK AO2 SLP174 T02280094
Loading
Personal Weather Stations






























Interactive Weather Map
Tropical Storm Tracking
New forecast layout! Learn more

10-Day Weather Forecast

Advertisements
Track Severe Weather on mobile